sensor_id;sensor_type;location;lat;lon;timestamp;P1;durP1;ratioP1;P2;durP2;ratioP2
8113;SDS011;4099;52.684;9.918;2022-10-16T00:01:55;2.57;;;2.17;;
8113;SDS011;4099;52.684;9.918;2022-10-16T00:06:57;4.40;;;2.10;;
8113;SDS011;4099;52.684;9.918;2022-10-16T00:12:00;1.90;;;1.70;;
8113;SDS011;4099;52.684;9.918;2022-10-16T00:17:04;2.37;;;1.83;;
8113;SDS011;4099;52.684;9.918;2022-10-16T00:22:05;2.83;;;1.87;;
8113;SDS011;4099;52.684;9.918;2022-10-16T00:27:09;3.53;;;2.20;;
8113;SDS011;4099;52.684;9.918;2022-10-16T00:32:10;4.13;;;2.20;;
8113;SDS011;4099;52.684;9.918;2022-10-16T00:37:13;3.40;;;1.97;;
8113;SDS011;4099;52.684;9.918;2022-10-16T00:42:16;2.20;;;1.80;;
8113;SDS011;4099;52.684;9.918;2022-10-16T00:47:21;1.90;;;1.80;;
8113;SDS011;4099;52.684;9.918;2022-10-16T00:52:27;2.40;;;1.90;;
8113;SDS011;4099;52.684;9.918;2022-10-16T00:57:30;4.03;;;1.97;;
8113;SDS011;4099;52.684;9.918;2022-10-16T01:02:32;2.90;;;2.00;;
8113;SDS011;4099;52.684;9.918;2022-10-16T01:07:36;1.77;;;1.47;;
8113;SDS011;4099;52.684;9.918;2022-10-16T01:12:47;3.30;;;1.60;;
8113;SDS011;4099;52.684;9.918;2022-10-16T01:17:56;1.50;;;1.40;;
8113;SDS011;4099;52.684;9.918;2022-10-16T01:23:04;1.50;;;1.40;;
8113;SDS011;4099;52.684;9.918;2022-10-16T01:28:12;2.53;;;1.57;;
8113;SDS011;4099;52.684;9.918;2022-10-16T01:33:17;1.50;;;1.40;;
8113;SDS011;4099;52.684;9.918;2022-10-16T01:38:23;1.53;;;1.40;;
8113;SDS011;4099;52.684;9.918;2022-10-16T01:43:33;3.80;;;1.90;;
8113;SDS011;4099;52.684;9.918;2022-10-16T01:48:39;2.43;;;1.83;;
8113;SDS011;4099;52.684;9.918;2022-10-16T01:53:43;2.43;;;1.60;;
8113;SDS011;4099;52.684;9.918;2022-10-16T01:58:51;1.77;;;1.57;;
8113;SDS011;4099;52.684;9.918;2022-10-16T02:03:57;2.53;;;1.87;;
8113;SDS011;4099;52.684;9.918;2022-10-16T02:09:03;2.23;;;1.93;;
8113;SDS011;4099;52.684;9.918;2022-10-16T02:14:06;1.70;;;1.50;;
8113;SDS011;4099;52.684;9.918;2022-10-16T02:19:08;2.17;;;1.53;;
8113;SDS011;4099;52.684;9.918;2022-10-16T02:24:13;4.20;;;2.43;;
8113;SDS011;4099;52.684;9.918;2022-10-16T02:29:25;2.83;;;1.93;;
8113;SDS011;4099;52.684;9.918;2022-10-16T02:34:28;2.17;;;1.83;;
8113;SDS011;4099;52.684;9.918;2022-10-16T02:39:33;3.27;;;2.30;;
8113;SDS011;4099;52.684;9.918;2022-10-16T02:44:36;2.87;;;2.17;;
8113;SDS011;4099;52.684;9.918;2022-10-16T02:49:38;2.73;;;1.70;;
8113;SDS011;4099;52.684;9.918;2022-10-16T02:54:40;3.20;;;2.20;;
8113;SDS011;4099;52.684;9.918;2022-10-16T02:59:43;2.57;;;2.33;;
8113;SDS011;4099;52.684;9.918;2022-10-16T03:04:46;2.90;;;2.20;;
8113;SDS011;4099;52.684;9.918;2022-10-16T03:09:47;3.77;;;1.80;;
8113;SDS011;4099;52.684;9.918;2022-10-16T03:14:51;3.17;;;2.27;;
8113;SDS011;4099;52.684;9.918;2022-10-16T03:19:53;3.03;;;2.33;;
8113;SDS011;4099;52.684;9.918;2022-10-16T03:24:54;4.13;;;3.03;;
8113;SDS011;4099;52.684;9.918;2022-10-16T03:29:58;2.50;;;2.20;;
8113;SDS011;4099;52.684;9.918;2022-10-16T03:35:00;2.57;;;2.27;;
8113;SDS011;4099;52.684;9.918;2022-10-16T03:40:02;3.50;;;2.47;;
8113;SDS011;4099;52.684;9.918;2022-10-16T03:45:06;2.70;;;2.00;;
8113;SDS011;4099;52.684;9.918;2022-10-16T03:50:08;3.57;;;2.20;;
8113;SDS011;4099;52.684;9.918;2022-10-16T03:55:10;2.43;;;2.23;;
8113;SDS011;4099;52.684;9.918;2022-10-16T04:00:13;2.73;;;2.53;;
8113;SDS011;4099;52.684;9.918;2022-10-16T04:05:15;2.53;;;2.23;;
8113;SDS011;4099;52.684;9.918;2022-10-16T04:10:17;2.63;;;2.27;;
8113;SDS011;4099;52.684;9.918;2022-10-16T04:15:21;2.80;;;2.30;;
8113;SDS011;4099;52.684;9.918;2022-10-16T04:20:23;3.17;;;2.40;;
8113;SDS011;4099;52.684;9.918;2022-10-16T04:25:25;4.53;;;2.60;;
8113;SDS011;4099;52.684;9.918;2022-10-16T04:30:29;3.20;;;2.30;;
8113;SDS011;4099;52.684;9.918;2022-10-16T04:35:31;2.93;;;2.50;;
8113;SDS011;4099;52.684;9.918;2022-10-16T04:40:32;3.33;;;2.40;;
8113;SDS011;4099;52.684;9.918;2022-10-16T04:45:37;3.73;;;2.80;;
8113;SDS011;4099;52.684;9.918;2022-10-16T04:50:39;2.30;;;2.10;;
8113;SDS011;4099;52.684;9.918;2022-10-16T04:55:42;2.77;;;2.40;;
8113;SDS011;4099;52.684;9.918;2022-10-16T05:00:46;2.93;;;2.63;;
8113;SDS011;4099;52.684;9.918;2022-10-16T05:05:48;4.13;;;2.40;;
8113;SDS011;4099;52.684;9.918;2022-10-16T05:10:50;3.07;;;2.47;;
8113;SDS011;4099;52.684;9.918;2022-10-16T05:15:53;6.17;;;3.80;;
8113;SDS011;4099;52.684;9.918;2022-10-16T05:20:55;3.60;;;3.30;;
8113;SDS011;4099;52.684;9.918;2022-10-16T05:25:57;3.43;;;3.10;;
8113;SDS011;4099;52.684;9.918;2022-10-16T05:31:04;7.47;;;5.67;;
8113;SDS011;4099;52.684;9.918;2022-10-16T05:36:07;8.50;;;7.10;;
8113;SDS011;4099;52.684;9.918;2022-10-16T05:41:10;11.83;;;10.70;;
8113;SDS011;4099;52.684;9.918;2022-10-16T05:46:14;10.17;;;9.17;;
8113;SDS011;4099;52.684;9.918;2022-10-16T05:51:16;7.77;;;6.97;;
8113;SDS011;4099;52.684;9.918;2022-10-16T05:56:18;5.93;;;5.30;;
8113;SDS011;4099;52.684;9.918;2022-10-16T06:01:21;4.60;;;3.83;;
8113;SDS011;4099;52.684;9.918;2022-10-16T06:06:24;5.27;;;4.00;;
8113;SDS011;4099;52.684;9.918;2022-10-16T06:11:28;4.20;;;3.63;;
8113;SDS011;4099;52.684;9.918;2022-10-16T06:16:33;4.37;;;3.00;;
8113;SDS011;4099;52.684;9.918;2022-10-16T06:21:35;6.17;;;5.40;;
8113;SDS011;4099;52.684;9.918;2022-10-16T06:26:37;7.87;;;6.50;;
8113;SDS011;4099;52.684;9.918;2022-10-16T06:31:40;14.03;;;12.73;;
8113;SDS011;4099;52.684;9.918;2022-10-16T06:36:42;7.53;;;6.70;;
8113;SDS011;4099;52.684;9.918;2022-10-16T06:41:44;32.20;;;29.00;;
8113;SDS011;4099;52.684;9.918;2022-10-16T06:46:50;21.60;;;19.50;;
8113;SDS011;4099;52.684;9.918;2022-10-16T06:51:52;10.33;;;9.33;;
8113;SDS011;4099;52.684;9.918;2022-10-16T06:56:54;10.47;;;9.33;;
8113;SDS011;4099;52.684;9.918;2022-10-16T07:01:57;12.77;;;11.50;;
8113;SDS011;4099;52.684;9.918;2022-10-16T07:07:00;7.93;;;7.23;;
8113;SDS011;4099;52.684;9.918;2022-10-16T07:12:02;6.23;;;5.63;;
8113;SDS011;4099;52.684;9.918;2022-10-16T07:17:05;6.50;;;5.77;;
8113;SDS011;4099;52.684;9.918;2022-10-16T07:22:07;9.40;;;8.43;;
8113;SDS011;4099;52.684;9.918;2022-10-16T07:27:09;8.77;;;8.17;;
8113;SDS011;4099;52.684;9.918;2022-10-16T07:32:12;6.93;;;5.80;;
8113;SDS011;4099;52.684;9.918;2022-10-16T07:37:14;3.10;;;2.67;;
8113;SDS011;4099;52.684;9.918;2022-10-16T07:42:16;3.20;;;2.70;;
8113;SDS011;4099;52.684;9.918;2022-10-16T07:47:19;5.10;;;3.53;;
8113;SDS011;4099;52.684;9.918;2022-10-16T07:52:21;5.77;;;3.87;;
8113;SDS011;4099;52.684;9.918;2022-10-16T07:57:23;2.47;;;2.30;;
8113;SDS011;4099;52.684;9.918;2022-10-16T08:02:26;5.70;;;1.93;;
8113;SDS011;4099;52.684;9.918;2022-10-16T08:07:28;1.97;;;1.87;;
8113;SDS011;4099;52.684;9.918;2022-10-16T08:12:30;3.73;;;1.90;;
8113;SDS011;4099;52.684;9.918;2022-10-16T08:17:33;2.03;;;1.80;;
8113;SDS011;4099;52.684;9.918;2022-10-16T08:22:35;2.20;;;2.00;;
8113;SDS011;4099;52.684;9.918;2022-10-16T08:27:38;2.60;;;1.70;;
8113;SDS011;4099;52.684;9.918;2022-10-16T08:32:41;1.80;;;1.70;;
8113;SDS011;4099;52.684;9.918;2022-10-16T08:37:43;2.30;;;1.73;;
8113;SDS011;4099;52.684;9.918;2022-10-16T08:43:02;2.23;;;1.70;;
8113;SDS011;4099;52.684;9.918;2022-10-16T08:48:23;1.60;;;1.50;;
8113;SDS011;4099;52.684;9.918;2022-10-16T08:53:33;1.77;;;1.67;;
8113;SDS011;4099;52.684;9.918;2022-10-16T08:58:43;1.40;;;1.30;;
8113;SDS011;4099;52.684;9.918;2022-10-16T09:03:52;1.40;;;1.30;;
8113;SDS011;4099;52.684;9.918;2022-10-16T09:09:04;1.33;;;1.23;;
8113;SDS011;4099;52.684;9.918;2022-10-16T09:14:35;1.50;;;1.40;;
8113;SDS011;4099;52.684;9.918;2022-10-16T09:19:50;2.77;;;1.50;;
8113;SDS011;4099;52.684;9.918;2022-10-16T09:24:55;1.63;;;1.30;;
8113;SDS011;4099;52.684;9.918;2022-10-16T09:30:01;1.60;;;1.10;;
8113;SDS011;4099;52.684;9.918;2022-10-16T09:35:13;0.87;;;0.70;;
8113;SDS011;4099;52.684;9.918;2022-10-16T09:40:24;1.67;;;1.20;;
8113;SDS011;4099;52.684;9.918;2022-10-16T09:45:27;1.97;;;1.27;;
8113;SDS011;4099;52.684;9.918;2022-10-16T09:50:31;0.97;;;0.97;;
8113;SDS011;4099;52.684;9.918;2022-10-16T09:55:34;2.00;;;1.30;;
8113;SDS011;4099;52.684;9.918;2022-10-16T10:00:36;1.83;;;1.20;;
8113;SDS011;4099;52.684;9.918;2022-10-16T10:05:47;1.30;;;1.20;;
8113;SDS011;4099;52.684;9.918;2022-10-16T10:10:51;1.23;;;1.10;;
8113;SDS011;4099;52.684;9.918;2022-10-16T10:15:54;2.50;;;1.50;;
8113;SDS011;4099;52.684;9.918;2022-10-16T10:20:59;3.17;;;1.70;;
8113;SDS011;4099;52.684;9.918;2022-10-16T10:26:02;5.00;;;1.83;;
8113;SDS011;4099;52.684;9.918;2022-10-16T10:31:10;3.20;;;1.17;;
8113;SDS011;4099;52.684;9.918;2022-10-16T10:36:25;1.43;;;0.97;;
8113;SDS011;4099;52.684;9.918;2022-10-16T10:47:12;3.80;;;1.43;;
8113;SDS011;4099;52.684;9.918;2022-10-16T10:52:35;2.77;;;1.13;;
8113;SDS011;4099;52.684;9.918;2022-10-16T10:57:58;2.50;;;1.13;;
8113;SDS011;4099;52.684;9.918;2022-10-16T11:03:13;1.37;;;1.13;;
8113;SDS011;4099;52.684;9.918;2022-10-16T11:08:35;1.73;;;1.17;;
8113;SDS011;4099;52.684;9.918;2022-10-16T11:13:42;2.00;;;1.10;;
8113;SDS011;4099;52.684;9.918;2022-10-16T11:18:49;1.80;;;0.93;;
8113;SDS011;4099;52.684;9.918;2022-10-16T11:24:00;2.23;;;1.23;;
8113;SDS011;4099;52.684;9.918;2022-10-16T11:29:08;3.53;;;1.40;;
8113;SDS011;4099;52.684;9.918;2022-10-16T11:34:17;1.47;;;1.00;;
8113;SDS011;4099;52.684;9.918;2022-10-16T11:39:25;1.97;;;1.10;;
8113;SDS011;4099;52.684;9.918;2022-10-16T11:44:34;1.80;;;1.30;;
8113;SDS011;4099;52.684;9.918;2022-10-16T11:49:43;1.57;;;1.10;;
8113;SDS011;4099;52.684;9.918;2022-10-16T11:54:51;2.37;;;1.23;;
8113;SDS011;4099;52.684;9.918;2022-10-16T11:59:57;6.37;;;1.30;;
8113;SDS011;4099;52.684;9.918;2022-10-16T12:05:16;2.33;;;1.37;;
8113;SDS011;4099;52.684;9.918;2022-10-16T12:10:26;1.30;;;1.20;;
8113;SDS011;4099;52.684;9.918;2022-10-16T12:15:32;1.77;;;1.23;;
8113;SDS011;4099;52.684;9.918;2022-10-16T12:20:34;3.90;;;1.43;;
8113;SDS011;4099;52.684;9.918;2022-10-16T12:25:39;1.77;;;1.17;;
8113;SDS011;4099;52.684;9.918;2022-10-16T12:30:51;2.27;;;1.60;;
8113;SDS011;4099;52.684;9.918;2022-10-16T12:35:55;2.90;;;1.40;;
8113;SDS011;4099;52.684;9.918;2022-10-16T12:41:01;2.30;;;1.40;;
8113;SDS011;4099;52.684;9.918;2022-10-16T12:46:05;3.63;;;1.50;;
8113;SDS011;4099;52.684;9.918;2022-10-16T12:51:39;3.67;;;1.20;;
8113;SDS011;4099;52.684;9.918;2022-10-16T12:56:46;2.70;;;1.30;;
8113;SDS011;4099;52.684;9.918;2022-10-16T13:02:00;2.27;;;1.30;;
8113;SDS011;4099;52.684;9.918;2022-10-16T13:07:38;2.50;;;1.33;;
8113;SDS011;4099;52.684;9.918;2022-10-16T13:12:56;1.20;;;1.10;;
8113;SDS011;4099;52.684;9.918;2022-10-16T13:18:11;3.97;;;1.40;;
8113;SDS011;4099;52.684;9.918;2022-10-16T13:23:18;1.87;;;1.30;;
8113;SDS011;4099;52.684;9.918;2022-10-16T13:28:30;1.90;;;1.27;;
8113;SDS011;4099;52.684;9.918;2022-10-16T13:33:35;2.00;;;1.27;;
8113;SDS011;4099;52.684;9.918;2022-10-16T13:38:40;2.20;;;1.17;;
8113;SDS011;4099;52.684;9.918;2022-10-16T13:43:44;2.13;;;1.00;;
8113;SDS011;4099;52.684;9.918;2022-10-16T13:48:56;2.60;;;1.30;;
8113;SDS011;4099;52.684;9.918;2022-10-16T13:53:58;1.60;;;1.20;;
8113;SDS011;4099;52.684;9.918;2022-10-16T13:59:02;1.73;;;1.40;;
8113;SDS011;4099;52.684;9.918;2022-10-16T14:04:06;1.80;;;1.30;;
8113;SDS011;4099;52.684;9.918;2022-10-16T14:09:13;1.33;;;1.20;;
8113;SDS011;4099;52.684;9.918;2022-10-16T14:14:25;2.63;;;1.30;;
8113;SDS011;4099;52.684;9.918;2022-10-16T14:19:32;3.20;;;1.50;;
8113;SDS011;4099;52.684;9.918;2022-10-16T14:24:34;1.77;;;1.47;;
8113;SDS011;4099;52.684;9.918;2022-10-16T14:29:38;2.23;;;1.13;;
8113;SDS011;4099;52.684;9.918;2022-10-16T14:34:40;3.53;;;1.33;;
8113;SDS011;4099;52.684;9.918;2022-10-16T14:39:42;3.90;;;1.30;;
8113;SDS011;4099;52.684;9.918;2022-10-16T14:44:51;2.10;;;1.30;;
8113;SDS011;4099;52.684;9.918;2022-10-16T14:49:55;1.93;;;1.37;;
8113;SDS011;4099;52.684;9.918;2022-10-16T14:54:59;1.27;;;1.20;;
8113;SDS011;4099;52.684;9.918;2022-10-16T15:00:02;2.40;;;1.77;;
8113;SDS011;4099;52.684;9.918;2022-10-16T15:05:11;2.57;;;1.60;;
8113;SDS011;4099;52.684;9.918;2022-10-16T15:10:15;1.60;;;1.30;;
8113;SDS011;4099;52.684;9.918;2022-10-16T15:15:28;3.43;;;1.80;;
8113;SDS011;4099;52.684;9.918;2022-10-16T15:20:36;2.80;;;1.67;;
8113;SDS011;4099;52.684;9.918;2022-10-16T15:25:41;2.10;;;1.30;;
8113;SDS011;4099;52.684;9.918;2022-10-16T15:30:46;3.30;;;1.40;;
8113;SDS011;4099;52.684;9.918;2022-10-16T15:35:51;2.30;;;1.57;;
8113;SDS011;4099;52.684;9.918;2022-10-16T15:40:55;2.07;;;1.60;;
8113;SDS011;4099;52.684;9.918;2022-10-16T15:46:00;4.37;;;1.80;;
8113;SDS011;4099;52.684;9.918;2022-10-16T15:51:05;2.17;;;1.93;;
8113;SDS011;4099;52.684;9.918;2022-10-16T15:56:09;2.07;;;1.87;;
8113;SDS011;4099;52.684;9.918;2022-10-16T16:01:14;4.30;;;1.90;;
8113;SDS011;4099;52.684;9.918;2022-10-16T16:06:17;2.80;;;2.37;;
8113;SDS011;4099;52.684;9.918;2022-10-16T16:11:20;2.50;;;2.00;;
8113;SDS011;4099;52.684;9.918;2022-10-16T16:16:25;2.97;;;2.27;;
8113;SDS011;4099;52.684;9.918;2022-10-16T16:21:28;3.10;;;1.97;;
8113;SDS011;4099;52.684;9.918;2022-10-16T16:26:30;4.60;;;3.77;;
8113;SDS011;4099;52.684;9.918;2022-10-16T16:31:37;4.37;;;3.63;;
8113;SDS011;4099;52.684;9.918;2022-10-16T16:36:40;6.00;;;5.50;;
8113;SDS011;4099;52.684;9.918;2022-10-16T16:41:43;6.30;;;5.70;;
8113;SDS011;4099;52.684;9.918;2022-10-16T16:46:47;6.07;;;5.47;;
8113;SDS011;4099;52.684;9.918;2022-10-16T16:51:49;6.43;;;5.80;;
8113;SDS011;4099;52.684;9.918;2022-10-16T16:56:53;7.47;;;6.60;;
8113;SDS011;4099;52.684;9.918;2022-10-16T17:01:57;7.10;;;6.40;;
8113;SDS011;4099;52.684;9.918;2022-10-16T17:07:00;8.53;;;7.73;;
8113;SDS011;4099;52.684;9.918;2022-10-16T17:12:03;10.93;;;9.73;;
8113;SDS011;4099;52.684;9.918;2022-10-16T17:17:07;11.70;;;9.83;;
8113;SDS011;4099;52.684;9.918;2022-10-16T17:22:09;11.33;;;10.23;;
8113;SDS011;4099;52.684;9.918;2022-10-16T17:27:11;13.00;;;11.70;;
8113;SDS011;4099;52.684;9.918;2022-10-16T17:32:15;15.60;;;11.70;;
8113;SDS011;4099;52.684;9.918;2022-10-16T17:37:20;12.13;;;10.83;;
8113;SDS011;4099;52.684;9.918;2022-10-16T17:42:22;19.73;;;14.00;;
8113;SDS011;4099;52.684;9.918;2022-10-16T17:47:26;20.23;;;16.33;;
8113;SDS011;4099;52.684;9.918;2022-10-16T17:52:29;24.93;;;19.33;;
8113;SDS011;4099;52.684;9.918;2022-10-16T17:57:31;27.23;;;19.53;;
8113;SDS011;4099;52.684;9.918;2022-10-16T18:02:36;21.40;;;18.13;;
8113;SDS011;4099;52.684;9.918;2022-10-16T18:07:41;20.17;;;17.10;;
8113;SDS011;4099;52.684;9.918;2022-10-16T18:12:44;18.97;;;15.80;;
8113;SDS011;4099;52.684;9.918;2022-10-16T18:17:48;19.30;;;14.07;;
8113;SDS011;4099;52.684;9.918;2022-10-16T18:22:50;15.07;;;13.43;;
8113;SDS011;4099;52.684;9.918;2022-10-16T18:27:53;15.53;;;12.70;;
8113;SDS011;4099;52.684;9.918;2022-10-16T18:32:57;15.37;;;11.87;;
8113;SDS011;4099;52.684;9.918;2022-10-16T18:38:00;10.80;;;9.70;;
8113;SDS011;4099;52.684;9.918;2022-10-16T18:43:02;10.53;;;9.40;;
8113;SDS011;4099;52.684;9.918;2022-10-16T18:48:06;13.40;;;11.90;;
8113;SDS011;4099;52.684;9.918;2022-10-16T18:53:08;16.60;;;13.67;;
8113;SDS011;4099;52.684;9.918;2022-10-16T18:58:11;19.40;;;15.93;;
8113;SDS011;4099;52.684;9.918;2022-10-16T19:03:14;26.47;;;20.87;;
8113;SDS011;4099;52.684;9.918;2022-10-16T19:08:17;39.50;;;26.73;;
8113;SDS011;4099;52.684;9.918;2022-10-16T19:13:20;37.13;;;24.73;;
8113;SDS011;4099;52.684;9.918;2022-10-16T19:18:24;27.27;;;20.07;;
8113;SDS011;4099;52.684;9.918;2022-10-16T19:23:27;25.80;;;19.67;;
8113;SDS011;4099;52.684;9.918;2022-10-16T19:28:29;23.20;;;18.23;;
8113;SDS011;4099;52.684;9.918;2022-10-16T19:33:36;22.30;;;17.53;;
8113;SDS011;4099;52.684;9.918;2022-10-16T19:38:40;17.90;;;16.00;;
8113;SDS011;4099;52.684;9.918;2022-10-16T19:43:43;13.57;;;12.17;;
8113;SDS011;4099;52.684;9.918;2022-10-16T19:48:47;12.93;;;10.40;;
8113;SDS011;4099;52.684;9.918;2022-10-16T19:53:54;10.83;;;9.73;;
8113;SDS011;4099;52.684;9.918;2022-10-16T19:58:59;10.50;;;7.97;;
8113;SDS011;4099;52.684;9.918;2022-10-16T20:04:03;7.53;;;6.83;;
8113;SDS011;4099;52.684;9.918;2022-10-16T20:09:06;8.27;;;6.10;;
8113;SDS011;4099;52.684;9.918;2022-10-16T20:14:09;6.17;;;5.57;;
8113;SDS011;4099;52.684;9.918;2022-10-16T20:19:13;10.13;;;7.67;;
8113;SDS011;4099;52.684;9.918;2022-10-16T20:24:16;8.90;;;7.60;;
8113;SDS011;4099;52.684;9.918;2022-10-16T20:29:20;9.13;;;8.23;;
8113;SDS011;4099;52.684;9.918;2022-10-16T20:34:24;19.47;;;10.17;;
8113;SDS011;4099;52.684;9.918;2022-10-16T20:39:27;22.77;;;16.87;;
8113;SDS011;4099;52.684;9.918;2022-10-16T20:44:29;87.27;;;53.03;;
8113;SDS011;4099;52.684;9.918;2022-10-16T20:49:33;43.93;;;30.30;;
8113;SDS011;4099;52.684;9.918;2022-10-16T20:54:36;43.20;;;30.43;;
8113;SDS011;4099;52.684;9.918;2022-10-16T20:59:38;35.33;;;23.13;;
8113;SDS011;4099;52.684;9.918;2022-10-16T21:04:42;21.80;;;17.27;;
8113;SDS011;4099;52.684;9.918;2022-10-16T21:09:49;16.13;;;12.77;;
8113;SDS011;4099;52.684;9.918;2022-10-16T21:14:51;15.93;;;11.30;;
8113;SDS011;4099;52.684;9.918;2022-10-16T21:19:56;13.50;;;12.10;;
8113;SDS011;4099;52.684;9.918;2022-10-16T21:24:59;12.93;;;11.23;;
8113;SDS011;4099;52.684;9.918;2022-10-16T21:30:01;16.53;;;12.77;;
8113;SDS011;4099;52.684;9.918;2022-10-16T21:35:06;18.60;;;14.37;;
8113;SDS011;4099;52.684;9.918;2022-10-16T21:40:09;20.77;;;13.53;;
8113;SDS011;4099;52.684;9.918;2022-10-16T21:45:12;21.60;;;14.33;;
8113;SDS011;4099;52.684;9.918;2022-10-16T21:50:16;32.70;;;21.23;;
8113;SDS011;4099;52.684;9.918;2022-10-16T21:55:19;51.23;;;32.53;;
8113;SDS011;4099;52.684;9.918;2022-10-16T22:00:21;46.63;;;29.47;;
8113;SDS011;4099;52.684;9.918;2022-10-16T22:05:25;42.90;;;28.27;;
8113;SDS011;4099;52.684;9.918;2022-10-16T22:10:28;27.47;;;19.77;;
8113;SDS011;4099;52.684;9.918;2022-10-16T22:15:31;11.23;;;8.90;;
8113;SDS011;4099;52.684;9.918;2022-10-16T22:20:35;16.40;;;12.33;;
8113;SDS011;4099;52.684;9.918;2022-10-16T22:25:37;8.83;;;7.90;;
8113;SDS011;4099;52.684;9.918;2022-10-16T22:30:40;9.73;;;7.47;;
8113;SDS011;4099;52.684;9.918;2022-10-16T22:35:44;8.20;;;5.60;;
8113;SDS011;4099;52.684;9.918;2022-10-16T22:40:47;6.77;;;5.33;;
8113;SDS011;4099;52.684;9.918;2022-10-16T22:45:50;6.80;;;6.10;;
8113;SDS011;4099;52.684;9.918;2022-10-16T22:50:53;6.23;;;5.37;;
8113;SDS011;4099;52.684;9.918;2022-10-16T22:55:56;11.63;;;5.97;;
8113;SDS011;4099;52.684;9.918;2022-10-16T23:00:58;6.53;;;5.50;;
8113;SDS011;4099;52.684;9.918;2022-10-16T23:06:03;6.00;;;5.30;;
8113;SDS011;4099;52.684;9.918;2022-10-16T23:11:05;8.13;;;5.60;;
8113;SDS011;4099;52.684;9.918;2022-10-16T23:16:09;5.73;;;5.10;;
8113;SDS011;4099;52.684;9.918;2022-10-16T23:21:15;6.83;;;5.00;;
8113;SDS011;4099;52.684;9.918;2022-10-16T23:26:20;4.80;;;4.40;;
8113;SDS011;4099;52.684;9.918;2022-10-16T23:31:23;5.07;;;4.50;;
8113;SDS011;4099;52.684;9.918;2022-10-16T23:36:27;4.97;;;4.10;;
8113;SDS011;4099;52.684;9.918;2022-10-16T23:41:29;5.97;;;4.63;;
8113;SDS011;4099;52.684;9.918;2022-10-16T23:46:31;4.83;;;4.10;;
8113;SDS011;4099;52.684;9.918;2022-10-16T23:51:34;4.33;;;3.93;;
8113;SDS011;4099;52.684;9.918;2022-10-16T23:56:36;4.23;;;3.80;;
